Time;durP1;ratioP1;P1;durP2;ratioP2;P2;SDS_P1;SDS_P2;PMS_P1;PMS_P2;Temp;Humidity;BMP_temperature;BMP_pressure;BME280_temperature;BME280_humidity;BME280_pressure;Samples;Min_cycle;Max_cycle;Signal;HPM_P1;HPM_P2
2022/10/25 00:00:02;;;;;;;5.00;3.60;;;22.10;78.10;;;;;;4045759;29;20071;-62
2022/10/25 00:02:25;;;;;;;4.25;3.28;;;22.10;78.00;;;;;;4054544;29;20040;-62
2022/10/25 00:04:47;;;;;;;4.55;3.30;;;22.10;78.00;;;;;;4053032;29;20040;-62
2022/10/25 00:07:10;;;;;;;4.55;3.22;;;22.10;78.00;;;;;;4046065;29;20518;-62
2022/10/25 00:09:32;;;;;;;4.03;3.20;;;22.10;77.90;;;;;;4051885;29;20052;-63
2022/10/25 00:11:55;;;;;;;4.47;3.30;;;22.10;77.60;;;;;;4050354;29;20179;-62
2022/10/25 00:14:19;;;;;;;3.88;3.13;;;22.20;77.70;;;;;;4053117;29;20087;-62
2022/10/25 00:16:41;;;;;;;3.67;3.08;;;22.20;77.70;;;;;;4049833;29;20049;-62
2022/10/25 00:19:05;;;;;;;4.13;3.10;;;22.20;77.60;;;;;;4049972;29;20055;-62
2022/10/25 00:21:28;;;;;;;3.55;2.83;;;22.20;77.70;;;;;;4046848;29;20087;-62
2022/10/25 00:23:51;;;;;;;3.33;2.80;;;22.20;77.70;;;;;;4053481;29;20108;-62
2022/10/25 00:26:14;;;;;;;3.75;2.97;;;22.20;77.80;;;;;;4051637;29;20032;-61
2022/10/25 00:28:37;;;;;;;3.20;2.78;;;22.20;77.90;;;;;;4046373;29;20056;-62
2022/10/25 00:31:03;;;;;;;4.25;2.92;;;22.20;77.80;;;;;;4052681;29;20055;-62
2022/10/25 00:33:28;;;;;;;3.60;2.80;;;22.20;77.80;;;;;;4051386;29;20819;-62
2022/10/25 00:35:50;;;;;;;3.75;2.90;;;22.20;77.80;;;;;;4050095;29;20099;-62
2022/10/25 00:38:13;;;;;;;3.45;2.88;;;22.20;77.70;;;;;;4049334;29;20130;-62
2022/10/25 00:40:35;;;;;;;3.67;2.80;;;22.20;77.70;;;;;;4048959;29;20051;-63
2022/10/25 00:42:58;;;;;;;4.28;2.97;;;22.20;77.70;;;;;;4050465;29;20499;-62
2022/10/25 00:45:25;;;;;;;3.70;2.70;;;22.20;77.70;;;;;;4049235;29;20048;-62
2022/10/25 00:48:09;;;;;;;4.90;3.00;;;22.20;77.70;;;;;;4050551;29;20134;-62
2022/10/25 00:50:41;;;;;;;3.53;2.90;;;22.20;77.60;;;;;;4046719;29;20135;-62
2022/10/25 00:53:10;;;;;;;3.33;2.63;;;22.30;77.70;;;;;;4050614;29;20044;-62
2022/10/25 00:55:33;;;;;;;3.38;2.60;;;22.30;77.60;;;;;;4047809;29;20092;-62
2022/10/25 00:58:06;;;;;;;4.03;2.90;;;22.30;77.70;;;;;;4052459;29;21015;-62
2022/10/25 01:00:29;;;;;;;4.18;3.05;;;22.30;77.60;;;;;;4054287;29;20040;-62
2022/10/25 01:02:52;;;;;;;3.70;2.70;;;22.30;77.60;;;;;;4053309;29;20044;-62
2022/10/25 01:05:16;;;;;;;3.85;3.03;;;22.40;77.50;;;;;;4052562;29;20503;-63
2022/10/25 01:07:38;;;;;;;4.82;2.95;;;22.40;77.50;;;;;;4051354;29;20067;-61
2022/10/25 01:10:01;;;;;;;5.30;2.88;;;22.40;77.50;;;;;;4049302;29;20040;-62
2022/10/25 01:12:23;;;;;;;2.95;2.50;;;22.40;77.40;;;;;;4051392;29;20504;-62
2022/10/25 01:14:50;;;;;;;4.00;2.67;;;22.40;77.40;;;;;;4053043;29;20862;-62
2022/10/25 01:17:23;;;;;;;3.95;3.10;;;22.40;77.50;;;;;;4055153;29;20078;-62
2022/10/25 01:20:31;;;;;;;3.60;2.70;;;22.40;77.50;;;;;;4050370;29;20083;-62
2022/10/25 01:23:18;;;;;;;3.72;2.78;;;22.40;77.30;;;;;;4052138;29;20290;-62
2022/10/25 01:25:49;;;;;;;3.65;2.83;;;22.50;77.30;;;;;;4049914;29;20047;-62
2022/10/25 01:28:26;;;;;;;3.10;2.20;;;22.60;77.20;;;;;;4051541;29;20296;-62
2022/10/25 01:31:00;;;;;;;3.50;2.60;;;22.60;77.20;;;;;;4053700;29;20048;-61
2022/10/25 01:34:07;;;;;;;3.80;2.90;;;22.60;77.20;;;;;;4046599;29;20053;-62
2022/10/25 01:36:35;;;;;;;3.10;2.50;;;22.60;77.10;;;;;;4052280;29;21450;-61
2022/10/25 01:39:12;;;;;;;4.25;2.70;;;22.60;77.10;;;;;;4051128;29;20067;-61
2022/10/25 01:42:00;;;;;;;3.15;2.33;;;22.60;77.10;;;;;;4049438;29;20360;-62
2022/10/25 01:44:25;;;;;;;3.30;2.50;;;22.70;77.00;;;;;;4051177;29;20044;-62
2022/10/25 01:47:16;;;;;;;3.30;2.63;;;22.70;77.00;;;;;;4053856;29;20051;-62
2022/10/25 01:50:07;;;;;;;4.30;2.63;;;22.70;76.90;;;;;;4047927;29;20389;-62
2022/10/25 01:52:30;;;;;;;3.00;2.40;;;22.70;76.90;;;;;;4055045;29;20075;-62
2022/10/25 01:54:53;;;;;;;3.05;2.45;;;22.80;76.90;;;;;;4051802;29;20103;-61
2022/10/25 01:57:44;;;;;;;3.05;2.35;;;22.80;76.80;;;;;;4050236;29;20429;-62
2022/10/25 02:00:10;;;;;;;3.03;2.40;;;22.90;76.80;;;;;;4051302;29;20040;-61
2022/10/25 02:02:57;;;;;;;3.47;2.65;;;22.90;76.80;;;;;;4051695;29;20131;-61
2022/10/25 02:05:28;;;;;;;3.95;2.50;;;22.90;76.70;;;;;;4052990;29;20047;-62
2022/10/25 02:08:03;;;;;;;3.50;2.70;;;22.90;76.60;;;;;;4046738;29;20558;-61
2022/10/25 02:10:43;;;;;;;3.03;2.72;;;23.00;76.60;;;;;;4047500;29;20041;-61
2022/10/25 02:13:09;;;;;;;3.58;2.60;;;23.00;76.60;;;;;;4053426;29;20622;-61
2022/10/25 02:15:40;;;;;;;2.95;2.30;;;23.00;76.50;;;;;;4048778;29;20570;-61
2022/10/25 02:18:07;;;;;;;3.42;2.33;;;23.00;76.50;;;;;;4051232;29;20551;-62
2022/10/25 02:20:34;;;;;;;3.17;2.33;;;23.10;76.50;;;;;;4048378;29;20462;-61
2022/10/25 02:23:00;;;;;;;3.13;2.35;;;23.10;76.50;;;;;;4053353;29;20040;-61
2022/10/25 02:25:23;;;;;;;4.75;2.50;;;23.10;76.50;;;;;;4047241;29;20056;-61
2022/10/25 02:27:46;;;;;;;3.17;2.40;;;23.10;76.50;;;;;;4052158;29;20040;-62
2022/10/25 02:30:09;;;;;;;3.10;2.47;;;23.20;76.50;;;;;;4052964;29;20036;-61
2022/10/25 02:32:32;;;;;;;4.18;2.38;;;23.20;76.50;;;;;;4054032;29;20123;-61
2022/10/25 02:34:55;;;;;;;3.50;2.30;;;23.20;76.40;;;;;;4053717;29;20834;-61
2022/10/25 02:37:18;;;;;;;3.67;2.70;;;23.30;76.50;;;;;;4051708;29;20283;-62
2022/10/25 02:39:41;;;;;;;2.50;2.20;;;23.30;76.30;;;;;;4052123;29;20040;-61
2022/10/25 02:42:04;;;;;;;2.75;2.20;;;23.30;76.30;;;;;;4052552;29;20484;-62
2022/10/25 02:44:27;;;;;;;2.88;2.35;;;23.30;76.20;;;;;;4050595;29;21347;-61
2022/10/25 02:46:49;;;;;;;2.85;2.40;;;23.40;76.30;;;;;;4048891;29;20387;-62
2022/10/25 02:49:12;;;;;;;3.33;2.38;;;23.40;76.20;;;;;;4051606;29;20044;-61
2022/10/25 02:51:34;;;;;;;3.05;2.53;;;23.40;76.90;;;;;;4058592;29;20104;-61
2022/10/25 02:53:57;;;;;;;2.88;2.20;;;23.40;76.30;;;;;;4060454;29;20035;-61
2022/10/25 02:56:22;;;;;;;3.00;2.30;;;23.40;76.20;;;;;;4057351;29;20219;-61
2022/10/25 02:58:45;;;;;;;2.78;2.30;;;23.40;76.10;;;;;;4054199;29;20535;-60
2022/10/25 03:01:08;;;;;;;2.80;2.10;;;23.50;76.30;;;;;;4044728;29;20036;-62
2022/10/25 03:03:31;;;;;;;3.22;2.38;;;23.50;76.20;;;;;;4047682;29;20295;-62
2022/10/25 03:05:54;;;;;;;2.75;2.30;;;23.50;76.20;;;;;;4044912;29;20044;-61
2022/10/25 03:08:17;;;;;;;3.73;2.30;;;23.50;76.20;;;;;;4044793;29;20212;-61
2022/10/25 03:10:39;;;;;;;2.42;2.20;;;23.60;76.20;;;;;;4053429;29;20055;-61
2022/10/25 03:13:02;;;;;;;3.35;2.08;;;23.60;76.10;;;;;;4051113;29;20170;-61
2022/10/25 03:15:24;;;;;;;2.17;1.98;;;23.60;76.10;;;;;;4053176;29;20167;-61
2022/10/25 03:17:47;;;;;;;2.50;1.95;;;23.60;76.00;;;;;;4049775;29;20412;-61
2022/10/25 03:20:10;;;;;;;2.78;2.15;;;23.70;76.10;;;;;;4049891;29;20043;-60
2022/10/25 03:22:32;;;;;;;3.30;2.08;;;23.70;76.00;;;;;;4051806;29;20098;-61
2022/10/25 03:24:55;;;;;;;2.47;2.10;;;23.70;76.00;;;;;;4050299;29;20112;-60
2022/10/25 03:27:17;;;;;;;2.35;1.85;;;23.80;76.00;;;;;;4050014;29;20044;-61
2022/10/25 03:29:40;;;;;;;2.80;2.10;;;23.80;76.00;;;;;;4048647;29;20110;-60
2022/10/25 03:32:04;;;;;;;3.00;2.13;;;23.90;75.80;;;;;;4048322;29;20040;-61
2022/10/25 03:34:27;;;;;;;2.08;1.80;;;23.90;75.70;;;;;;4052897;29;20036;-60
2022/10/25 03:36:51;;;;;;;2.80;2.38;;;23.90;75.70;;;;;;4049442;29;20226;-60
2022/10/25 03:39:13;;;;;;;2.88;2.00;;;24.00;75.70;;;;;;4052417;29;20437;-61
2022/10/25 03:41:36;;;;;;;2.75;1.88;;;24.00;75.60;;;;;;4053278;29;21255;-60
2022/10/25 03:43:58;;;;;;;3.00;1.98;;;24.00;75.50;;;;;;4051956;29;20491;-60
2022/10/25 03:46:21;;;;;;;2.25;1.98;;;24.10;75.60;;;;;;4045761;29;20032;-61
2022/10/25 03:48:43;;;;;;;2.33;2.05;;;24.20;75.50;;;;;;4051864;29;20044;-61
2022/10/25 03:51:06;;;;;;;2.65;1.98;;;24.20;75.40;;;;;;4039938;29;20032;-60
2022/10/25 03:53:29;;;;;;;2.10;1.90;;;24.30;75.30;;;;;;4046198;29;20044;-61
2022/10/25 03:55:51;;;;;;;2.67;2.20;;;24.30;75.20;;;;;;4046180;29;20048;-60
2022/10/25 03:58:14;;;;;;;2.92;2.08;;;24.40;75.10;;;;;;4047426;29;20036;-60
2022/10/25 04:00:36;;;;;;;2.97;2.10;;;24.40;74.90;;;;;;4047019;29;20040;-60
2022/10/25 04:03:00;;;;;;;2.75;2.15;;;24.50;74.80;;;;;;4047661;29;20540;-60
2022/10/25 04:05:23;;;;;;;2.72;2.20;;;24.60;74.80;;;;;;4048627;29;20168;-61
2022/10/25 04:07:46;;;;;;;2.53;2.00;;;24.60;74.60;;;;;;4047846;29;20040;-60
2022/10/25 04:10:08;;;;;;;2.50;2.00;;;24.70;74.50;;;;;;4048610;29;20146;-60
2022/10/25 04:12:31;;;;;;;3.20;2.25;;;24.80;74.30;;;;;;4047871;29;20050;-60
2022/10/25 04:14:53;;;;;;;2.55;2.00;;;24.80;74.20;;;;;;4048401;29;20079;-61
2022/10/25 04:17:16;;;;;;;2.70;2.20;;;24.90;73.90;;;;;;4047885;29;20464;-61
2022/10/25 04:19:39;;;;;;;2.53;2.10;;;25.00;73.70;;;;;;4045566;29;20183;-60
2022/10/25 04:22:01;;;;;;;3.03;2.10;;;25.10;73.60;;;;;;4049618;29;20737;-60
2022/10/25 04:24:24;;;;;;;2.75;2.20;;;25.20;73.40;;;;;;4049349;29;20067;-60
2022/10/25 04:26:46;;;;;;;2.60;2.10;;;25.20;73.20;;;;;;4046271;29;20032;-61
2022/10/25 04:29:11;;;;;;;3.05;2.20;;;25.30;73.00;;;;;;4052924;29;20044;-60
2022/10/25 04:31:34;;;;;;;3.17;2.38;;;25.40;73.00;;;;;;4051725;29;20037;-60
2022/10/25 04:33:56;;;;;;;2.83;2.38;;;25.40;72.70;;;;;;4055002;29;20123;-61
2022/10/25 04:36:20;;;;;;;3.08;1.95;;;25.40;72.60;;;;;;4054264;29;20060;-61
2022/10/25 04:38:42;;;;;;;3.80;2.40;;;25.40;72.70;;;;;;4053016;29;20480;-61
2022/10/25 04:41:05;;;;;;;2.80;2.10;;;25.40;72.80;;;;;;4053234;29;20409;-61
2022/10/25 04:43:28;;;;;;;4.05;2.60;;;25.40;72.90;;;;;;4054278;29;20044;-61
2022/10/25 04:45:53;;;;;;;4.38;2.60;;;25.40;73.10;;;;;;4054789;29;20412;-61
2022/10/25 04:48:16;;;;;;;3.45;2.45;;;25.40;73.20;;;;;;4053612;29;20040;-61
2022/10/25 04:50:38;;;;;;;4.07;2.55;;;25.30;73.20;;;;;;4053835;29;20044;-61
2022/10/25 04:53:01;;;;;;;4.32;2.90;;;25.30;73.30;;;;;;4056194;29;20411;-61
2022/10/25 04:55:23;;;;;;;4.65;2.80;;;25.30;73.50;;;;;;4054532;29;20103;-61
2022/10/25 04:57:46;;;;;;;3.20;2.55;;;25.20;73.50;;;;;;4052052;29;20075;-61
2022/10/25 05:00:09;;;;;;;3.85;2.58;;;25.30;73.70;;;;;;4046402;29;20449;-61
2022/10/25 05:02:31;;;;;;;4.45;3.15;;;25.20;73.70;;;;;;4055051;29;20496;-61
2022/10/25 05:04:54;;;;;;;4.65;3.05;;;25.20;73.70;;;;;;4051426;29;20071;-62
2022/10/25 05:07:20;;;;;;;5.18;3.08;;;25.20;73.90;;;;;;4053300;29;20040;-62
2022/10/25 05:09:42;;;;;;;4.45;3.10;;;25.20;73.90;;;;;;4051931;29;20044;-61
2022/10/25 05:12:05;;;;;;;4.47;3.03;;;25.20;74.00;;;;;;4052595;29;20036;-61
2022/10/25 05:14:28;;;;;;;7.03;3.40;;;25.20;74.70;;;;;;4053140;29;20494;-62
2022/10/25 05:16:50;;;;;;;5.53;3.42;;;25.10;74.00;;;;;;4053772;29;20044;-61
2022/10/25 05:19:13;;;;;;;4.20;2.95;;;25.10;73.90;;;;;;4055031;29;20040;-61
2022/10/25 05:21:35;;;;;;;6.05;3.05;;;25.10;74.00;;;;;;4052263;29;20131;-62
2022/10/25 05:23:59;;;;;;;4.22;3.10;;;25.10;74.00;;;;;;4051579;29;20052;-63
2022/10/25 05:26:21;;;;;;;4.60;2.83;;;25.10;74.30;;;;;;4052776;29;20050;-62
2022/10/25 05:28:46;;;;;;;4.10;2.90;;;25.10;74.30;;;;;;4051201;29;20329;-62
2022/10/25 05:31:16;;;;;;;5.00;3.58;;;25.10;74.20;;;;;;4053134;29;20159;-62
2022/10/25 05:33:39;;;;;;;4.57;2.92;;;25.10;74.30;;;;;;4051486;29;20044;-63
2022/10/25 05:36:02;;;;;;;4.72;3.10;;;25.10;74.40;;;;;;4052543;29;20095;-62
2022/10/25 05:38:25;;;;;;;4.75;3.20;;;25.00;74.40;;;;;;4050315;29;20124;-62
2022/10/25 05:40:56;;;;;;;3.97;2.83;;;25.00;74.50;;;;;;4051074;29;20048;-62
2022/10/25 05:43:18;;;;;;;4.30;2.75;;;25.00;74.40;;;;;;4049162;29;20044;-62
2022/10/25 05:45:41;;;;;;;4.43;2.70;;;25.00;74.40;;;;;;4051714;29;20068;-62
2022/10/25 05:48:03;;;;;;;5.25;3.15;;;25.00;74.30;;;;;;4054342;29;20036;-62
2022/10/25 05:50:26;;;;;;;4.78;3.20;;;24.90;74.20;;;;;;4052184;29;20071;-62
2022/10/25 05:52:49;;;;;;;4.72;3.00;;;24.90;74.30;;;;;;4053436;29;20115;-62
2022/10/25 05:55:11;;;;;;;4.05;2.60;;;24.90;74.80;;;;;;4053014;29;20054;-62
2022/10/25 05:57:34;;;;;;;3.90;2.38;;;24.90;74.90;;;;;;4054697;29;20055;-62
2022/10/25 05:59:56;;;;;;;5.53;2.78;;;24.90;74.70;;;;;;4050499;29;20274;-63
2022/10/25 06:02:19;;;;;;;4.78;3.00;;;24.90;74.40;;;;;;4052397;29;20040;-62
2022/10/25 06:04:41;;;;;;;4.78;2.95;;;24.90;74.40;;;;;;4052197;29;20040;-63
2022/10/25 06:07:04;;;;;;;4.05;2.70;;;24.90;74.40;;;;;;4052873;29;20055;-63
2022/10/25 06:09:26;;;;;;;4.03;3.10;;;24.90;74.40;;;;;;4062329;29;20707;-63
2022/10/25 06:11:49;;;;;;;3.80;2.53;;;24.90;74.40;;;;;;4052509;29;20595;-63
2022/10/25 06:14:11;;;;;;;3.53;2.50;;;25.00;74.40;;;;;;4050854;29;20047;-63
2022/10/25 06:16:36;;;;;;;4.18;2.80;;;25.00;74.30;;;;;;4052379;29;20059;-63
2022/10/25 06:18:58;;;;;;;6.53;2.58;;;25.00;74.30;;;;;;4050394;29;20466;-63
2022/10/25 06:21:24;;;;;;;4.45;2.80;;;25.10;74.30;;;;;;4051960;29;20059;-63
2022/10/25 06:23:47;;;;;;;3.40;2.47;;;25.10;74.20;;;;;;4050541;29;20688;-63
2022/10/25 06:26:22;;;;;;;3.75;2.50;;;25.20;74.00;;;;;;4050965;29;20048;-63
2022/10/25 06:28:45;;;;;;;4.20;2.55;;;25.30;73.80;;;;;;4046149;29;20040;-63
2022/10/25 06:31:12;;;;;;;3.75;2.70;;;25.30;74.30;;;;;;4048113;29;20489;-63
2022/10/25 06:33:35;;;;;;;3.78;2.63;;;25.40;73.60;;;;;;4038812;29;20432;-63
2022/10/25 06:36:00;;;;;;;4.35;2.53;;;25.40;73.50;;;;;;4038907;29;20067;-64
2022/10/25 06:38:23;;;;;;;5.15;2.55;;;25.40;73.40;;;;;;4044941;29;20059;-65
2022/10/25 06:40:45;;;;;;;4.38;3.13;;;25.50;73.40;;;;;;4045372;29;20068;-63
2022/10/25 06:43:08;;;;;;;5.13;2.72;;;25.40;73.30;;;;;;4038939;29;20058;-63
2022/10/25 06:45:30;;;;;;;5.80;3.08;;;25.50;73.30;;;;;;4042804;29;20139;-63
2022/10/25 06:47:53;;;;;;;4.03;2.78;;;25.50;73.30;;;;;;4044656;29;20503;-63
2022/10/25 06:50:16;;;;;;;6.72;3.50;;;25.50;73.40;;;;;;4039591;29;20053;-63
2022/10/25 06:52:38;;;;;;;9.10;3.10;;;25.60;73.50;;;;;;4042390;29;20367;-63
2022/10/25 06:55:01;;;;;;;4.93;2.78;;;25.60;73.50;;;;;;4041508;29;20052;-64
2022/10/25 06:57:23;;;;;;;5.40;3.30;;;25.60;73.50;;;;;;4041808;29;20047;-63
2022/10/25 06:59:46;;;;;;;6.07;2.75;;;25.60;73.50;;;;;;4041559;29;20047;-63
2022/10/25 07:02:09;;;;;;;4.90;2.65;;;25.60;73.50;;;;;;4044361;29;20035;-63
2022/10/25 07:04:32;;;;;;;5.15;3.25;;;25.60;73.60;;;;;;4038750;29;20345;-63
2022/10/25 07:06:54;;;;;;;5.30;3.35;;;25.60;73.60;;;;;;4048267;29;20028;-63
2022/10/25 07:09:18;;;;;;;4.40;3.22;;;25.60;73.60;;;;;;4054845;29;20054;-63
2022/10/25 07:11:41;;;;;;;8.90;3.55;;;25.60;74.40;;;;;;4052726;29;20145;-63
2022/10/25 07:14:03;;;;;;;6.15;3.15;;;25.60;73.80;;;;;;4053020;29;20042;-64
2022/10/25 07:16:27;;;;;;;5.38;3.33;;;25.60;73.70;;;;;;4049495;29;20052;-63
2022/10/25 07:18:50;;;;;;;4.93;2.70;;;25.60;73.80;;;;;;4041031;29;21281;-63
2022/10/25 07:21:15;;;;;;;6.03;2.97;;;25.60;73.80;;;;;;4038946;29;20044;-63
2022/10/25 07:23:41;;;;;;;5.43;3.50;;;25.60;73.90;;;;;;4040837;29;20492;-63
2022/10/25 07:26:03;;;;;;;5.78;3.50;;;25.60;73.90;;;;;;4038650;29;20036;-63
2022/10/25 07:28:27;;;;;;;6.22;3.55;;;25.60;74.00;;;;;;4035326;29;20044;-63
2022/10/25 07:30:50;;;;;;;7.63;3.55;;;25.60;74.10;;;;;;4030478;29;20131;-63
2022/10/25 07:33:14;;;;;;;6.17;3.40;;;25.60;74.20;;;;;;4039820;29;20288;-63
2022/10/25 07:35:35;;;;;;;;;;;25.60;74.30;;;;;;4039613;29;20767;-63
2022/10/25 07:37:58;;;;;;;5.05;2.95;;;25.60;74.40;;;;;;4038172;29;19919;-61
2022/10/25 07:40:21;;;;;;;5.82;3.35;;;25.50;74.30;;;;;;4036016;29;20036;-60
2022/10/25 07:42:44;;;;;;;4.75;3.17;;;25.50;74.20;;;;;;4038982;29;20051;-59
2022/10/25 07:45:07;;;;;;;4.80;3.28;;;25.50;74.30;;;;;;4037939;29;20512;-59
2022/10/25 07:47:30;;;;;;;4.22;3.17;;;25.50;74.50;;;;;;4039017;29;20289;-59
2022/10/25 07:49:52;;;;;;;5.00;3.00;;;25.50;74.70;;;;;;4038648;29;20036;-56
2022/10/25 07:52:15;;;;;;;10.48;3.83;;;25.50;74.80;;;;;;4037230;29;20155;-59
2022/10/25 07:54:37;;;;;;;7.95;3.78;;;25.50;75.10;;;;;;4038404;29;20052;-59
2022/10/25 07:57:00;;;;;;;5.32;3.20;;;25.50;75.40;;;;;;4035824;29;20040;-61
2022/10/25 07:59:22;;;;;;;6.15;2.97;;;25.50;75.60;;;;;;4038444;29;20143;-55
2022/10/25 08:01:45;;;;;;;5.28;2.97;;;25.50;75.60;;;;;;4050230;29;20082;-57
2022/10/25 08:04:08;;;;;;;5.75;3.70;;;25.60;75.80;;;;;;4039716;29;20068;-59
2022/10/25 08:06:30;;;;;;;6.47;3.28;;;25.50;75.80;;;;;;4041352;29;20088;-60
2022/10/25 08:08:53;;;;;;;14.80;3.35;;;25.60;76.00;;;;;;4041508;29;20051;-59
2022/10/25 08:11:16;;;;;;;10.83;3.30;;;25.50;76.10;;;;;;4043626;29;20571;-58
2022/10/25 08:13:39;;;;;;;5.63;3.45;;;25.60;76.30;;;;;;4039104;29;20044;-59
2022/10/25 08:16:02;;;;;;;7.15;3.22;;;25.50;76.40;;;;;;4042535;29;20086;-59
2022/10/25 08:18:25;;;;;;;11.33;3.60;;;25.60;76.40;;;;;;4042768;29;20123;-58
2022/10/25 08:20:48;;;;;;;11.57;3.00;;;25.60;76.30;;;;;;4039852;29;20291;-58
2022/10/25 08:23:10;;;;;;;4.97;3.15;;;25.60;76.30;;;;;;4042049;29;21289;-61
2022/10/25 08:25:33;;;;;;;5.30;2.95;;;25.60;76.40;;;;;;4042214;29;20082;-61
2022/10/25 08:27:56;;;;;;;7.13;3.42;;;25.60;76.60;;;;;;4044451;29;20524;-60
2022/10/25 08:30:18;;;;;;;9.95;2.97;;;25.60;76.50;;;;;;4044631;29;20044;-60
2022/10/25 08:32:41;;;;;;;5.70;3.47;;;25.70;76.60;;;;;;4040702;29;20467;-57
2022/10/25 08:35:04;;;;;;;8.20;3.10;;;25.60;76.60;;;;;;4041249;29;20422;-59
2022/10/25 08:37:26;;;;;;;5.83;3.43;;;25.70;76.60;;;;;;4041753;29;20687;-59
2022/10/25 08:39:49;;;;;;;5.05;2.72;;;25.70;76.60;;;;;;4037545;29;20785;-57
2022/10/25 08:42:22;;;;;;;11.95;3.33;;;25.70;76.50;;;;;;4039062;29;20047;-58
2022/10/25 08:45:19;;;;;;;6.03;3.28;;;25.70;76.50;;;;;;4041052;29;20071;-61
2022/10/25 08:47:45;;;;;;;7.13;3.25;;;25.70;76.50;;;;;;4045467;29;20052;-59
2022/10/25 08:50:27;;;;;;;6.22;3.40;;;25.70;76.40;;;;;;4049729;29;20087;-60
2022/10/25 08:52:53;;;;;;;10.73;3.20;;;25.60;76.50;;;;;;4044928;29;20043;-63
2022/10/25 08:55:38;;;;;;;8.13;2.95;;;25.70;76.60;;;;;;4055863;29;20063;-63
2022/10/25 08:58:02;;;;;;;6.05;3.72;;;25.70;76.10;;;;;;4048146;29;20519;-63
2022/10/25 09:00:31;;;;;;;10.65;4.78;;;25.70;74.90;;;;;;4048610;29;20050;-64
2022/10/25 09:02:53;;;;;;;6.22;4.30;;;25.60;74.50;;;;;;4055048;29;20051;-64
2022/10/25 09:05:34;;;;;;;7.95;4.32;;;25.60;74.30;;;;;;4049282;29;20047;-64
2022/10/25 09:08:22;;;;;;;6.88;4.40;;;25.50;74.20;;;;;;4053963;29;20040;-63
2022/10/25 09:11:05;;;;;;;7.35;4.38;;;25.50;74.10;;;;;;4049384;29;20060;-63
2022/10/25 09:13:40;;;;;;;5.72;3.90;;;25.50;74.10;;;;;;4047302;29;20665;-64
2022/10/25 09:16:16;;;;;;;5.93;4.05;;;25.40;74.20;;;;;;4047221;29;20095;-60
2022/10/25 09:18:53;;;;;;;8.88;4.32;;;25.40;74.30;;;;;;4043394;29;20044;-61
2022/10/25 09:21:41;;;;;;;15.88;4.50;;;25.40;74.80;;;;;;4044354;29;20459;-59
2022/10/25 09:24:42;;;;;;;15.20;4.35;;;25.40;75.20;;;;;;4042409;29;20056;-60
2022/10/25 09:27:14;;;;;;;7.40;4.20;;;25.40;75.40;;;;;;4044319;29;20455;-59
2022/10/25 09:29:52;;;;;;;8.10;3.90;;;25.40;75.60;;;;;;4040413;29;20054;-58
2022/10/25 09:32:47;;;;;;;8.13;4.38;;;25.50;75.90;;;;;;4047110;29;20047;-61
2022/10/25 09:35:23;;;;;;;9.57;4.10;;;25.50;76.00;;;;;;4044608;29;20544;-61
2022/10/25 09:37:52;;;;;;;7.97;4.38;;;25.50;76.20;;;;;;4046562;29;20036;-61
2022/10/25 09:40:23;;;;;;;7.85;4.03;;;25.50;76.30;;;;;;4046749;29;20552;-59
2022/10/25 09:43:06;;;;;;;7.03;3.63;;;25.50;76.30;;;;;;4045749;29;20128;-60
2022/10/25 09:45:48;;;;;;;6.60;3.75;;;25.60;76.40;;;;;;4046466;29;20143;-59
2022/10/25 09:48:15;;;;;;;6.88;4.07;;;25.60;76.50;;;;;;4045533;29;20161;-57
2022/10/25 09:50:50;;;;;;;9.63;4.47;;;25.60;76.50;;;;;;4048650;29;20056;-59
2022/10/25 09:53:18;;;;;;;6.80;4.22;;;25.60;76.60;;;;;;4043059;29;20153;-61
2022/10/25 09:55:57;;;;;;;6.15;3.92;;;25.60;76.60;;;;;;4042727;29;20052;-55
2022/10/25 09:58:39;;;;;;;6.50;4.05;;;25.60;76.50;;;;;;4043476;29;20048;-58
2022/10/25 10:01:08;;;;;;;6.75;4.00;;;25.60;76.40;;;;;;4050923;29;20809;-62
2022/10/25 10:03:35;;;;;;;5.88;3.53;;;25.60;76.50;;;;;;4050064;29;20032;-63
2022/10/25 10:06:11;;;;;;;9.00;4.03;;;25.60;76.40;;;;;;4051327;29;20047;-63
2022/10/25 10:08:35;;;;;;;7.22;4.22;;;25.60;75.40;;;;;;4052106;29;20036;-63
2022/10/25 10:10:58;;;;;;;5.50;3.70;;;25.60;73.70;;;;;;4052062;29;20080;-63
2022/10/25 10:13:46;;;;;;;7.30;4.13;;;25.60;73.30;;;;;;4052146;29;20039;-63
2022/10/25 10:16:41;;;;;;;5.22;3.72;;;25.50;73.80;;;;;;4047629;29;20055;-61
2022/10/25 10:19:19;;;;;;;7.38;4.18;;;25.50;73.50;;;;;;4050257;29;20040;-71
2022/10/25 10:21:51;;;;;;;7.65;3.95;;;25.50;74.50;;;;;;4051833;29;20043;-62
2022/10/25 10:24:34;;;;;;;15.15;4.40;;;25.40;74.80;;;;;;4044625;29;20131;-59
2022/10/25 10:27:11;;;;;;;10.73;4.57;;;25.50;75.30;;;;;;4047774;29;20046;-59
2022/10/25 10:29:57;;;;;;;13.43;4.82;;;25.50;75.50;;;;;;4049928;29;20115;-62
2022/10/25 10:32:27;;;;;;;24.90;5.50;;;25.50;75.80;;;;;;4048220;29;20040;-61
2022/10/25 10:34:55;;;;;;;11.43;4.60;;;25.50;76.10;;;;;;4049915;29;20056;-59
2022/10/25 10:37:22;;;;;;;18.92;4.88;;;25.50;76.20;;;;;;4051738;29;20040;-58
2022/10/25 10:39:56;;;;;;;22.92;4.53;;;25.60;76.70;;;;;;4044909;29;20036;-58
2022/10/25 10:42:22;;;;;;;;;;;25.60;76.80;;;;;;4046962;29;20091;-58
2022/10/25 10:45:14;;;;;;;12.50;4.82;;;25.60;76.70;;;;;;4050340;29;20371;-58
2022/10/25 10:47:48;;;;;;;11.82;3.95;;;25.60;76.60;;;;;;4049941;29;20067;-58
2022/10/25 10:50:29;;;;;;;12.27;4.47;;;25.60;76.60;;;;;;4047433;29;20045;-65
2022/10/25 10:53:05;;;;;;;17.92;4.80;;;25.70;76.50;;;;;;4043847;29;20067;-57
2022/10/25 10:55:28;;;;;;;13.05;4.55;;;25.70;76.40;;;;;;4047440;29;20526;-55
2022/10/25 10:57:53;;;;;;;12.32;4.25;;;25.70;76.40;;;;;;4048082;29;20044;-58
2022/10/25 11:00:34;;;;;;;12.05;4.45;;;25.70;76.40;;;;;;4046524;29;20056;-58
2022/10/25 11:02:57;;;;;;;10.15;4.15;;;25.70;76.50;;;;;;4047919;29;20721;-57
2022/10/25 11:05:29;;;;;;;7.97;3.70;;;25.70;76.50;;;;;;4044186;29;20111;-59
2022/10/25 11:08:04;;;;;;;8.88;4.28;;;25.70;76.50;;;;;;4046298;29;20161;-59
2022/10/25 11:10:33;;;;;;;13.88;4.38;;;25.70;76.50;;;;;;4043542;29;20040;-59
2022/10/25 11:13:09;;;;;;;8.40;4.32;;;25.80;76.50;;;;;;4045800;29;20044;-57
2022/10/25 11:15:44;;;;;;;10.98;4.50;;;25.80;76.40;;;;;;4042678;29;20040;-58
2022/10/25 11:18:08;;;;;;;10.85;4.18;;;25.80;76.30;;;;;;4047579;29;20083;-60
2022/10/25 11:20:39;;;;;;;9.75;3.42;;;25.80;76.30;;;;;;4050390;29;20456;-58
2022/10/25 11:23:15;;;;;;;6.78;3.75;;;25.80;76.20;;;;;;4052595;29;20040;-60
2022/10/25 11:26:10;;;;;;;11.65;4.03;;;25.80;76.30;;;;;;4053700;29;20044;-56
2022/10/25 11:28:55;;;;;;;10.10;3.78;;;25.80;76.20;;;;;;4055652;29;20040;-54
2022/10/25 11:31:36;;;;;;;8.35;3.97;;;25.80;76.20;;;;;;4051378;29;20078;-57
2022/10/25 11:34:01;;;;;;;6.95;3.80;;;25.80;76.10;;;;;;4057163;29;20158;-54
2022/10/25 11:36:24;;;;;;;7.10;3.53;;;25.80;76.00;;;;;;4043321;29;20048;-58
2022/10/25 11:39:11;;;;;;;8.43;4.20;;;25.80;76.00;;;;;;4043743;29;20067;-54
2022/10/25 11:41:44;;;;;;;9.88;4.10;;;25.80;75.80;;;;;;4045898;29;20523;-59
2022/10/25 11:44:19;;;;;;;10.48;4.22;;;25.80;75.70;;;;;;4043257;29;20096;-52
2022/10/25 11:46:52;;;;;;;9.65;3.83;;;25.80;75.80;;;;;;4049483;29;20040;-55
2022/10/25 11:49:33;;;;;;;11.67;3.93;;;25.80;75.80;;;;;;4049605;29;20048;-52
2022/10/25 11:52:10;;;;;;;7.20;3.60;;;25.80;75.80;;;;;;4053576;29;20134;-56
2022/10/25 11:55:17;;;;;;;14.13;3.97;;;25.80;75.80;;;;;;4048759;29;20040;-56
2022/10/25 11:57:59;;;;;;;8.43;4.13;;;25.80;75.90;;;;;;4046214;29;20087;-53
2022/10/25 12:00:36;;;;;;;7.45;4.05;;;25.80;75.90;;;;;;4046853;29;20040;-58
2022/10/25 12:03:08;;;;;;;8.43;4.43;;;25.80;76.00;;;;;;4040234;29;20040;-57
2022/10/25 12:05:30;;;;;;;6.70;4.00;;;25.80;75.80;;;;;;4047082;29;20379;-57
2022/10/25 12:08:02;;;;;;;8.23;4.30;;;25.80;75.90;;;;;;4044588;29;20500;-59
2022/10/25 12:10:47;;;;;;;8.02;4.13;;;25.70;75.80;;;;;;4047597;29;20040;-56
2022/10/25 12:13:32;;;;;;;7.00;3.95;;;25.70;75.80;;;;;;4050114;29;20127;-58
2022/10/25 12:15:56;;;;;;;7.93;4.25;;;25.70;75.80;;;;;;4044314;29;20059;-55
2022/10/25 12:18:31;;;;;;;8.50;4.05;;;25.70;75.80;;;;;;4041230;29;20465;-59
2022/10/25 12:20:55;;;;;;;6.15;3.75;;;25.70;75.90;;;;;;4048298;29;20058;-57
2022/10/25 12:23:20;;;;;;;7.72;4.00;;;25.70;76.00;;;;;;4048834;29;20052;-58
2022/10/25 12:26:01;;;;;;;6.55;3.80;;;25.70;76.00;;;;;;4043587;29;20052;-55
2022/10/25 12:28:50;;;;;;;8.07;3.78;;;25.70;76.00;;;;;;4046968;29;20047;-59
2022/10/25 12:31:21;;;;;;;7.75;3.97;;;25.70;76.00;;;;;;4048284;29;20092;-57
2022/10/25 12:33:58;;;;;;;6.70;3.72;;;25.70;75.80;;;;;;4048312;29;20052;-55
2022/10/25 12:36:30;;;;;;;6.53;4.20;;;25.60;75.90;;;;;;4047298;29;20524;-57
2022/10/25 12:38:54;;;;;;;8.32;4.40;;;25.60;75.90;;;;;;4045861;29;20048;-57
2022/10/25 12:41:23;;;;;;;6.03;3.65;;;25.60;75.90;;;;;;4043890;29;20127;-54
2022/10/25 12:44:13;;;;;;;6.38;3.80;;;25.60;76.00;;;;;;4049680;29;20040;-52
2022/10/25 12:46:50;;;;;;;9.38;4.22;;;25.60;76.30;;;;;;4049012;29;20044;-54
2022/10/25 12:49:46;;;;;;;6.25;3.90;;;25.60;76.40;;;;;;4047329;29;20119;-53